sensor_id;sensor_type;location;lat;lon;timestamp;P1;durP1;ratioP1;P2;durP2;ratioP2
32633;SDS011;19043;51.012;5.648;2023-08-07T00:02:08;12.45;;;2.83;;
32633;SDS011;19043;51.012;5.648;2023-08-07T00:04:33;7.40;;;3.22;;
32633;SDS011;19043;51.012;5.648;2023-08-07T00:06:58;9.13;;;3.43;;
32633;SDS011;19043;51.012;5.648;2023-08-07T00:09:23;9.55;;;2.78;;
32633;SDS011;19043;51.012;5.648;2023-08-07T00:11:49;11.57;;;3.13;;
32633;SDS011;19043;51.012;5.648;2023-08-07T00:14:14;8.13;;;2.97;;
32633;SDS011;19043;51.012;5.648;2023-08-07T00:16:40;9.00;;;3.20;;
32633;SDS011;19043;51.012;5.648;2023-08-07T00:19:06;8.70;;;2.85;;
32633;SDS011;19043;51.012;5.648;2023-08-07T00:21:31;11.35;;;2.97;;
32633;SDS011;19043;51.012;5.648;2023-08-07T00:23:56;10.73;;;2.95;;
32633;SDS011;19043;51.012;5.648;2023-08-07T00:26:22;8.25;;;3.30;;
32633;SDS011;19043;51.012;5.648;2023-08-07T00:28:47;7.30;;;3.33;;
32633;SDS011;19043;51.012;5.648;2023-08-07T00:31:12;7.65;;;3.28;;
32633;SDS011;19043;51.012;5.648;2023-08-07T00:33:37;7.57;;;3.22;;
32633;SDS011;19043;51.012;5.648;2023-08-07T00:36:03;7.28;;;2.75;;
32633;SDS011;19043;51.012;5.648;2023-08-07T00:38:28;8.20;;;3.45;;
32633;SDS011;19043;51.012;5.648;2023-08-07T00:40:54;6.93;;;3.30;;
32633;SDS011;19043;51.012;5.648;2023-08-07T00:43:19;7.90;;;3.15;;
32633;SDS011;19043;51.012;5.648;2023-08-07T00:45:46;7.55;;;3.03;;
32633;SDS011;19043;51.012;5.648;2023-08-07T00:48:11;10.57;;;3.30;;
32633;SDS011;19043;51.012;5.648;2023-08-07T00:50:37;7.20;;;3.22;;
32633;SDS011;19043;51.012;5.648;2023-08-07T00:53:03;8.52;;;3.33;;
32633;SDS011;19043;51.012;5.648;2023-08-07T00:55:29;8.05;;;3.67;;
32633;SDS011;19043;51.012;5.648;2023-08-07T00:57:54;7.35;;;3.40;;
32633;SDS011;19043;51.012;5.648;2023-08-07T01:00:19;9.13;;;3.30;;
32633;SDS011;19043;51.012;5.648;2023-08-07T01:02:45;7.50;;;3.40;;
32633;SDS011;19043;51.012;5.648;2023-08-07T01:05:12;11.77;;;3.30;;
32633;SDS011;19043;51.012;5.648;2023-08-07T01:07:37;5.00;;;3.03;;
32633;SDS011;19043;51.012;5.648;2023-08-07T01:10:03;10.18;;;3.95;;
32633;SDS011;19043;51.012;5.648;2023-08-07T01:12:30;8.38;;;3.85;;
32633;SDS011;19043;51.012;5.648;2023-08-07T01:17:25;9.65;;;2.95;;
32633;SDS011;19043;51.012;5.648;2023-08-07T01:19:51;8.75;;;3.28;;
32633;SDS011;19043;51.012;5.648;2023-08-07T01:22:17;8.63;;;3.42;;
32633;SDS011;19043;51.012;5.648;2023-08-07T01:24:43;8.50;;;3.30;;
32633;SDS011;19043;51.012;5.648;2023-08-07T01:27:32;8.05;;;3.03;;
32633;SDS011;19043;51.012;5.648;2023-08-07T01:34:54;6.78;;;2.65;;
32633;SDS011;19043;51.012;5.648;2023-08-07T01:37:21;7.18;;;2.88;;
32633;SDS011;19043;51.012;5.648;2023-08-07T01:39:47;6.72;;;3.17;;
32633;SDS011;19043;51.012;5.648;2023-08-07T01:42:13;6.70;;;2.83;;
32633;SDS011;19043;51.012;5.648;2023-08-07T01:44:39;5.95;;;2.70;;
32633;SDS011;19043;51.012;5.648;2023-08-07T01:47:04;6.65;;;3.05;;
32633;SDS011;19043;51.012;5.648;2023-08-07T01:49:30;15.43;;;3.88;;
32633;SDS011;19043;51.012;5.648;2023-08-07T01:51:55;8.40;;;3.03;;
32633;SDS011;19043;51.012;5.648;2023-08-07T01:54:20;7.00;;;3.17;;
32633;SDS011;19043;51.012;5.648;2023-08-07T01:56:45;7.87;;;3.23;;
32633;SDS011;19043;51.012;5.648;2023-08-07T01:59:11;8.63;;;3.20;;
32633;SDS011;19043;51.012;5.648;2023-08-07T02:01:36;11.30;;;2.97;;
32633;SDS011;19043;51.012;5.648;2023-08-07T02:04:01;11.50;;;3.08;;
32633;SDS011;19043;51.012;5.648;2023-08-07T02:06:26;12.10;;;3.10;;
32633;SDS011;19043;51.012;5.648;2023-08-07T02:08:52;6.60;;;3.13;;
32633;SDS011;19043;51.012;5.648;2023-08-07T02:11:17;8.10;;;3.15;;
32633;SDS011;19043;51.012;5.648;2023-08-07T02:13:42;7.25;;;3.38;;
32633;SDS011;19043;51.012;5.648;2023-08-07T02:16:07;6.30;;;3.13;;
32633;SDS011;19043;51.012;5.648;2023-08-07T02:18:33;4.65;;;2.35;;
32633;SDS011;19043;51.012;5.648;2023-08-07T02:20:58;7.13;;;2.83;;
32633;SDS011;19043;51.012;5.648;2023-08-07T02:23:23;12.95;;;3.10;;
32633;SDS011;19043;51.012;5.648;2023-08-07T02:25:49;7.03;;;2.90;;
32633;SDS011;19043;51.012;5.648;2023-08-07T02:28:14;8.17;;;3.23;;
32633;SDS011;19043;51.012;5.648;2023-08-07T02:30:39;12.02;;;3.53;;
32633;SDS011;19043;51.012;5.648;2023-08-07T02:33:04;8.23;;;3.33;;
32633;SDS011;19043;51.012;5.648;2023-08-07T02:35:29;9.48;;;2.90;;
32633;SDS011;19043;51.012;5.648;2023-08-07T02:37:55;6.75;;;2.78;;
32633;SDS011;19043;51.012;5.648;2023-08-07T02:40:20;6.30;;;2.78;;
32633;SDS011;19043;51.012;5.648;2023-08-07T02:42:45;10.63;;;3.20;;
32633;SDS011;19043;51.012;5.648;2023-08-07T02:45:10;7.85;;;3.10;;
32633;SDS011;19043;51.012;5.648;2023-08-07T02:47:36;7.63;;;2.70;;
32633;SDS011;19043;51.012;5.648;2023-08-07T02:50:01;7.68;;;3.70;;
32633;SDS011;19043;51.012;5.648;2023-08-07T02:52:26;13.95;;;3.25;;
32633;SDS011;19043;51.012;5.648;2023-08-07T02:54:51;6.67;;;3.30;;
32633;SDS011;19043;51.012;5.648;2023-08-07T02:57:17;7.68;;;3.30;;
32633;SDS011;19043;51.012;5.648;2023-08-07T02:59:42;8.98;;;3.40;;
32633;SDS011;19043;51.012;5.648;2023-08-07T03:02:07;9.63;;;2.67;;
32633;SDS011;19043;51.012;5.648;2023-08-07T03:04:32;11.60;;;3.25;;
32633;SDS011;19043;51.012;5.648;2023-08-07T03:06:58;10.40;;;3.07;;
32633;SDS011;19043;51.012;5.648;2023-08-07T03:09:23;10.23;;;3.00;;
32633;SDS011;19043;51.012;5.648;2023-08-07T03:11:48;6.47;;;2.93;;
32633;SDS011;19043;51.012;5.648;2023-08-07T03:14:13;6.05;;;3.70;;
32633;SDS011;19043;51.012;5.648;2023-08-07T03:16:38;7.40;;;3.03;;
32633;SDS011;19043;51.012;5.648;2023-08-07T03:19:04;8.43;;;3.13;;
32633;SDS011;19043;51.012;5.648;2023-08-07T03:21:29;8.85;;;3.03;;
32633;SDS011;19043;51.012;5.648;2023-08-07T03:23:54;9.95;;;4.03;;
32633;SDS011;19043;51.012;5.648;2023-08-07T03:26:19;9.97;;;3.13;;
32633;SDS011;19043;51.012;5.648;2023-08-07T03:28:45;8.00;;;3.70;;
32633;SDS011;19043;51.012;5.648;2023-08-07T03:31:11;4.35;;;2.75;;
32633;SDS011;19043;51.012;5.648;2023-08-07T03:33:37;13.27;;;3.53;;
32633;SDS011;19043;51.012;5.648;2023-08-07T03:36:02;9.18;;;2.85;;
32633;SDS011;19043;51.012;5.648;2023-08-07T03:38:28;6.03;;;2.80;;
32633;SDS011;19043;51.012;5.648;2023-08-07T03:40:53;13.60;;;2.83;;
32633;SDS011;19043;51.012;5.648;2023-08-07T03:43:18;10.27;;;3.20;;
32633;SDS011;19043;51.012;5.648;2023-08-07T03:45:43;6.77;;;2.97;;
32633;SDS011;19043;51.012;5.648;2023-08-07T03:48:08;8.17;;;3.03;;
32633;SDS011;19043;51.012;5.648;2023-08-07T03:50:34;7.72;;;3.25;;
32633;SDS011;19043;51.012;5.648;2023-08-07T03:53:02;7.28;;;2.85;;
32633;SDS011;19043;51.012;5.648;2023-08-07T03:55:27;7.15;;;2.92;;
32633;SDS011;19043;51.012;5.648;2023-08-07T03:57:52;10.25;;;3.08;;
32633;SDS011;19043;51.012;5.648;2023-08-07T04:00:17;6.22;;;2.75;;
32633;SDS011;19043;51.012;5.648;2023-08-07T04:02:43;8.23;;;2.80;;
32633;SDS011;19043;51.012;5.648;2023-08-07T04:05:09;6.68;;;3.22;;
32633;SDS011;19043;51.012;5.648;2023-08-07T04:07:34;7.13;;;2.80;;
32633;SDS011;19043;51.012;5.648;2023-08-07T04:09:59;3.47;;;2.10;;
32633;SDS011;19043;51.012;5.648;2023-08-07T04:12:25;5.27;;;2.40;;
32633;SDS011;19043;51.012;5.648;2023-08-07T04:14:50;5.32;;;2.08;;
32633;SDS011;19043;51.012;5.648;2023-08-07T04:17:15;7.40;;;2.45;;
32633;SDS011;19043;51.012;5.648;2023-08-07T04:19:40;4.70;;;2.70;;
32633;SDS011;19043;51.012;5.648;2023-08-07T04:22:06;5.07;;;2.60;;
32633;SDS011;19043;51.012;5.648;2023-08-07T04:24:31;7.78;;;2.92;;
32633;SDS011;19043;51.012;5.648;2023-08-07T04:26:57;5.65;;;2.75;;
32633;SDS011;19043;51.012;5.648;2023-08-07T04:29:23;6.30;;;2.40;;
32633;SDS011;19043;51.012;5.648;2023-08-07T04:31:48;5.82;;;2.33;;
32633;SDS011;19043;51.012;5.648;2023-08-07T04:34:14;12.02;;;2.90;;
32633;SDS011;19043;51.012;5.648;2023-08-07T04:36:39;7.43;;;2.58;;
32633;SDS011;19043;51.012;5.648;2023-08-07T04:39:04;4.32;;;1.90;;
32633;SDS011;19043;51.012;5.648;2023-08-07T04:41:29;9.30;;;2.45;;
32633;SDS011;19043;51.012;5.648;2023-08-07T04:43:55;6.35;;;2.22;;
32633;SDS011;19043;51.012;5.648;2023-08-07T04:46:20;4.82;;;2.33;;
32633;SDS011;19043;51.012;5.648;2023-08-07T04:48:45;5.23;;;2.30;;
32633;SDS011;19043;51.012;5.648;2023-08-07T04:51:10;7.45;;;2.55;;
32633;SDS011;19043;51.012;5.648;2023-08-07T04:53:36;5.75;;;2.50;;
32633;SDS011;19043;51.012;5.648;2023-08-07T04:56:01;6.90;;;2.88;;
32633;SDS011;19043;51.012;5.648;2023-08-07T04:58:27;8.20;;;2.35;;
32633;SDS011;19043;51.012;5.648;2023-08-07T05:00:55;4.60;;;2.38;;
32633;SDS011;19043;51.012;5.648;2023-08-07T05:03:21;6.93;;;2.33;;
32633;SDS011;19043;51.012;5.648;2023-08-07T05:05:46;6.43;;;2.33;;
32633;SDS011;19043;51.012;5.648;2023-08-07T05:08:12;6.25;;;2.45;;
32633;SDS011;19043;51.012;5.648;2023-08-07T05:10:37;8.10;;;2.78;;
32633;SDS011;19043;51.012;5.648;2023-08-07T05:13:02;4.77;;;2.00;;
32633;SDS011;19043;51.012;5.648;2023-08-07T05:15:27;8.85;;;3.08;;
32633;SDS011;19043;51.012;5.648;2023-08-07T05:17:56;6.38;;;2.70;;
32633;SDS011;19043;51.012;5.648;2023-08-07T05:20:22;5.60;;;2.05;;
32633;SDS011;19043;51.012;5.648;2023-08-07T05:22:47;4.15;;;2.00;;
32633;SDS011;19043;51.012;5.648;2023-08-07T05:25:12;4.70;;;2.22;;
32633;SDS011;19043;51.012;5.648;2023-08-07T05:27:41;7.00;;;2.72;;
32633;SDS011;19043;51.012;5.648;2023-08-07T05:30:06;5.05;;;2.30;;
32633;SDS011;19043;51.012;5.648;2023-08-07T05:32:32;5.45;;;2.67;;
32633;SDS011;19043;51.012;5.648;2023-08-07T05:34:57;7.18;;;2.80;;
32633;SDS011;19043;51.012;5.648;2023-08-07T05:37:23;5.80;;;2.53;;
32633;SDS011;19043;51.012;5.648;2023-08-07T05:39:48;7.80;;;2.20;;
32633;SDS011;19043;51.012;5.648;2023-08-07T05:42:13;4.55;;;2.42;;
32633;SDS011;19043;51.012;5.648;2023-08-07T05:44:39;7.35;;;2.65;;
32633;SDS011;19043;51.012;5.648;2023-08-07T05:47:04;5.68;;;2.53;;
32633;SDS011;19043;51.012;5.648;2023-08-07T05:49:29;7.20;;;3.17;;
32633;SDS011;19043;51.012;5.648;2023-08-07T05:51:55;6.28;;;3.00;;
32633;SDS011;19043;51.012;5.648;2023-08-07T05:54:20;7.18;;;2.58;;
32633;SDS011;19043;51.012;5.648;2023-08-07T05:56:45;6.70;;;2.55;;
32633;SDS011;19043;51.012;5.648;2023-08-07T05:59:10;10.55;;;2.67;;
32633;SDS011;19043;51.012;5.648;2023-08-07T06:01:36;6.40;;;2.50;;
32633;SDS011;19043;51.012;5.648;2023-08-07T06:04:02;4.95;;;2.55;;
32633;SDS011;19043;51.012;5.648;2023-08-07T06:06:27;7.95;;;3.63;;
32633;SDS011;19043;51.012;5.648;2023-08-07T06:08:59;6.65;;;2.80;;
32633;SDS011;19043;51.012;5.648;2023-08-07T06:11:24;6.97;;;2.90;;
32633;SDS011;19043;51.012;5.648;2023-08-07T06:13:49;5.00;;;2.75;;
32633;SDS011;19043;51.012;5.648;2023-08-07T06:16:15;5.43;;;2.47;;
32633;SDS011;19043;51.012;5.648;2023-08-07T06:18:40;5.47;;;2.87;;
32633;SDS011;19043;51.012;5.648;2023-08-07T06:21:05;6.57;;;2.63;;
32633;SDS011;19043;51.012;5.648;2023-08-07T06:23:32;9.85;;;2.70;;
32633;SDS011;19043;51.012;5.648;2023-08-07T06:25:57;9.30;;;2.85;;
32633;SDS011;19043;51.012;5.648;2023-08-07T06:28:23;6.00;;;2.27;;
32633;SDS011;19043;51.012;5.648;2023-08-07T06:30:48;9.67;;;2.53;;
32633;SDS011;19043;51.012;5.648;2023-08-07T06:33:13;5.70;;;2.50;;
32633;SDS011;19043;51.012;5.648;2023-08-07T06:35:38;11.97;;;3.10;;
32633;SDS011;19043;51.012;5.648;2023-08-07T06:38:04;6.03;;;2.45;;
32633;SDS011;19043;51.012;5.648;2023-08-07T06:40:29;4.38;;;2.30;;
32633;SDS011;19043;51.012;5.648;2023-08-07T06:42:55;4.30;;;2.40;;
32633;SDS011;19043;51.012;5.648;2023-08-07T06:45:20;10.00;;;3.00;;
32633;SDS011;19043;51.012;5.648;2023-08-07T06:47:45;7.25;;;2.97;;
32633;SDS011;19043;51.012;5.648;2023-08-07T06:50:11;8.88;;;2.85;;
32633;SDS011;19043;51.012;5.648;2023-08-07T06:52:37;3.90;;;2.08;;
32633;SDS011;19043;51.012;5.648;2023-08-07T06:55:03;6.63;;;2.72;;
32633;SDS011;19043;51.012;5.648;2023-08-07T06:57:28;5.15;;;2.60;;
32633;SDS011;19043;51.012;5.648;2023-08-07T06:59:53;5.18;;;2.70;;
32633;SDS011;19043;51.012;5.648;2023-08-07T07:02:18;6.45;;;2.60;;
32633;SDS011;19043;51.012;5.648;2023-08-07T07:04:44;8.55;;;2.28;;
32633;SDS011;19043;51.012;5.648;2023-08-07T07:07:09;6.40;;;2.80;;
32633;SDS011;19043;51.012;5.648;2023-08-07T07:09:34;6.27;;;2.70;;
32633;SDS011;19043;51.012;5.648;2023-08-07T07:11:59;5.32;;;2.40;;
32633;SDS011;19043;51.012;5.648;2023-08-07T07:14:25;7.53;;;2.37;;
32633;SDS011;19043;51.012;5.648;2023-08-07T07:16:50;5.32;;;2.03;;
32633;SDS011;19043;51.012;5.648;2023-08-07T07:19:15;10.35;;;2.35;;
32633;SDS011;19043;51.012;5.648;2023-08-07T07:21:41;6.15;;;2.35;;
32633;SDS011;19043;51.012;5.648;2023-08-07T07:24:06;5.20;;;2.80;;
32633;SDS011;19043;51.012;5.648;2023-08-07T07:26:32;7.35;;;2.63;;
32633;SDS011;19043;51.012;5.648;2023-08-07T07:28:57;9.32;;;3.15;;
32633;SDS011;19043;51.012;5.648;2023-08-07T07:31:22;5.30;;;3.20;;
32633;SDS011;19043;51.012;5.648;2023-08-07T07:33:47;6.97;;;2.50;;
32633;SDS011;19043;51.012;5.648;2023-08-07T07:36:16;5.82;;;2.55;;
32633;SDS011;19043;51.012;5.648;2023-08-07T07:38:42;5.95;;;2.40;;
32633;SDS011;19043;51.012;5.648;2023-08-07T07:41:10;4.57;;;2.55;;
32633;SDS011;19043;51.012;5.648;2023-08-07T07:43:36;6.47;;;2.65;;
32633;SDS011;19043;51.012;5.648;2023-08-07T07:46:01;4.93;;;2.70;;
32633;SDS011;19043;51.012;5.648;2023-08-07T07:48:27;5.32;;;2.63;;
32633;SDS011;19043;51.012;5.648;2023-08-07T07:50:57;9.70;;;2.63;;
32633;SDS011;19043;51.012;5.648;2023-08-07T07:53:22;6.00;;;2.50;;
32633;SDS011;19043;51.012;5.648;2023-08-07T07:55:48;6.30;;;3.07;;
32633;SDS011;19043;51.012;5.648;2023-08-07T07:58:13;6.35;;;2.58;;
32633;SDS011;19043;51.012;5.648;2023-08-07T08:00:38;6.50;;;2.35;;
32633;SDS011;19043;51.012;5.648;2023-08-07T08:03:03;7.05;;;2.70;;
32633;SDS011;19043;51.012;5.648;2023-08-07T08:05:29;5.70;;;2.67;;
32633;SDS011;19043;51.012;5.648;2023-08-07T08:07:54;4.35;;;2.28;;
32633;SDS011;19043;51.012;5.648;2023-08-07T08:10:19;4.37;;;2.07;;
32633;SDS011;19043;51.012;5.648;2023-08-07T08:12:44;4.63;;;2.15;;
32633;SDS011;19043;51.012;5.648;2023-08-07T08:15:10;4.70;;;2.10;;
32633;SDS011;19043;51.012;5.648;2023-08-07T08:17:35;6.43;;;2.70;;
32633;SDS011;19043;51.012;5.648;2023-08-07T08:20:00;4.97;;;2.63;;
32633;SDS011;19043;51.012;5.648;2023-08-07T08:22:25;6.20;;;2.63;;
32633;SDS011;19043;51.012;5.648;2023-08-07T08:24:51;6.43;;;2.42;;
32633;SDS011;19043;51.012;5.648;2023-08-07T08:27:16;7.18;;;2.30;;
32633;SDS011;19043;51.012;5.648;2023-08-07T08:29:42;4.53;;;2.30;;
32633;SDS011;19043;51.012;5.648;2023-08-07T08:32:08;7.05;;;2.25;;
32633;SDS011;19043;51.012;5.648;2023-08-07T08:34:34;11.07;;;2.30;;
32633;SDS011;19043;51.012;5.648;2023-08-07T08:36:59;3.90;;;2.07;;
32633;SDS011;19043;51.012;5.648;2023-08-07T08:39:24;8.82;;;2.72;;
32633;SDS011;19043;51.012;5.648;2023-08-07T08:41:49;5.07;;;2.50;;
32633;SDS011;19043;51.012;5.648;2023-08-07T08:44:15;5.10;;;2.35;;
32633;SDS011;19043;51.012;5.648;2023-08-07T08:46:41;4.03;;;1.83;;
32633;SDS011;19043;51.012;5.648;2023-08-07T08:49:07;6.88;;;2.38;;
32633;SDS011;19043;51.012;5.648;2023-08-07T08:51:33;4.53;;;2.25;;
32633;SDS011;19043;51.012;5.648;2023-08-07T08:53:59;4.10;;;2.03;;
32633;SDS011;19043;51.012;5.648;2023-08-07T08:56:24;6.05;;;2.50;;
32633;SDS011;19043;51.012;5.648;2023-08-07T08:58:52;5.10;;;2.00;;
32633;SDS011;19043;51.012;5.648;2023-08-07T09:01:18;4.82;;;1.95;;
32633;SDS011;19043;51.012;5.648;2023-08-07T09:03:46;5.60;;;2.35;;
32633;SDS011;19043;51.012;5.648;2023-08-07T09:06:12;6.50;;;1.92;;
32633;SDS011;19043;51.012;5.648;2023-08-07T09:08:38;7.47;;;2.45;;
32633;SDS011;19043;51.012;5.648;2023-08-07T09:11:05;3.97;;;1.70;;
32633;SDS011;19043;51.012;5.648;2023-08-07T09:13:32;9.30;;;1.88;;
32633;SDS011;19043;51.012;5.648;2023-08-07T09:15:58;2.80;;;1.50;;
32633;SDS011;19043;51.012;5.648;2023-08-07T09:18:24;3.85;;;1.90;;
32633;SDS011;19043;51.012;5.648;2023-08-07T09:20:49;5.60;;;2.50;;
32633;SDS011;19043;51.012;5.648;2023-08-07T09:23:15;4.70;;;2.22;;
32633;SDS011;19043;51.012;5.648;2023-08-07T09:25:41;4.72;;;1.77;;
32633;SDS011;19043;51.012;5.648;2023-08-07T09:28:07;4.65;;;1.45;;
32633;SDS011;19043;51.012;5.648;2023-08-07T09:30:32;3.40;;;1.80;;
32633;SDS011;19043;51.012;5.648;2023-08-07T09:32:59;4.30;;;1.85;;
32633;SDS011;19043;51.012;5.648;2023-08-07T09:35:24;5.10;;;2.05;;
32633;SDS011;19043;51.012;5.648;2023-08-07T09:37:50;4.60;;;1.95;;
32633;SDS011;19043;51.012;5.648;2023-08-07T09:40:15;5.03;;;2.08;;
32633;SDS011;19043;51.012;5.648;2023-08-07T09:42:41;5.53;;;2.03;;
32633;SDS011;19043;51.012;5.648;2023-08-07T09:45:19;5.20;;;2.20;;
32633;SDS011;19043;51.012;5.648;2023-08-07T09:47:44;4.00;;;1.75;;
32633;SDS011;19043;51.012;5.648;2023-08-07T09:50:15;8.00;;;2.10;;
32633;SDS011;19043;51.012;5.648;2023-08-07T09:52:40;4.00;;;1.60;;
32633;SDS011;19043;51.012;5.648;2023-08-07T09:55:05;4.63;;;1.63;;
32633;SDS011;19043;51.012;5.648;2023-08-07T09:57:31;3.10;;;1.50;;
32633;SDS011;19043;51.012;5.648;2023-08-07T09:59:56;4.25;;;1.85;;
32633;SDS011;19043;51.012;5.648;2023-08-07T10:02:21;4.95;;;2.00;;
32633;SDS011;19043;51.012;5.648;2023-08-07T10:04:47;5.60;;;2.05;;
32633;SDS011;19043;51.012;5.648;2023-08-07T10:07:12;5.65;;;1.70;;
32633;SDS011;19043;51.012;5.648;2023-08-07T10:09:39;3.78;;;1.42;;
32633;SDS011;19043;51.012;5.648;2023-08-07T10:12:05;5.05;;;1.83;;
32633;SDS011;19043;51.012;5.648;2023-08-07T10:14:30;3.28;;;1.73;;
32633;SDS011;19043;51.012;5.648;2023-08-07T10:16:56;5.30;;;1.87;;
32633;SDS011;19043;51.012;5.648;2023-08-07T10:19:21;5.05;;;1.63;;
32633;SDS011;19043;51.012;5.648;2023-08-07T10:21:46;6.67;;;1.60;;
32633;SDS011;19043;51.012;5.648;2023-08-07T10:24:12;6.60;;;1.52;;
32633;SDS011;19043;51.012;5.648;2023-08-07T10:26:42;4.72;;;1.83;;
32633;SDS011;19043;51.012;5.648;2023-08-07T10:29:09;5.18;;;2.25;;
32633;SDS011;19043;51.012;5.648;2023-08-07T10:31:35;3.47;;;1.20;;
32633;SDS011;19043;51.012;5.648;2023-08-07T10:34:02;7.53;;;2.17;;
32633;SDS011;19043;51.012;5.648;2023-08-07T10:36:34;5.15;;;2.13;;
32633;SDS011;19043;51.012;5.648;2023-08-07T10:39:09;4.75;;;1.83;;
32633;SDS011;19043;51.012;5.648;2023-08-07T10:41:42;6.20;;;2.10;;
32633;SDS011;19043;51.012;5.648;2023-08-07T10:44:22;5.38;;;2.25;;
32633;SDS011;19043;51.012;5.648;2023-08-07T10:46:54;4.97;;;1.70;;
32633;SDS011;19043;51.012;5.648;2023-08-07T10:49:33;2.95;;;1.35;;
32633;SDS011;19043;51.012;5.648;2023-08-07T10:52:12;6.10;;;2.03;;
32633;SDS011;19043;51.012;5.648;2023-08-07T10:54:45;5.00;;;2.00;;
32633;SDS011;19043;51.012;5.648;2023-08-07T10:57:14;5.55;;;1.85;;
32633;SDS011;19043;51.012;5.648;2023-08-07T10:59:49;4.65;;;1.63;;
32633;SDS011;19043;51.012;5.648;2023-08-07T11:02:22;4.35;;;1.80;;
32633;SDS011;19043;51.012;5.648;2023-08-07T11:04:47;5.10;;;2.00;;
32633;SDS011;19043;51.012;5.648;2023-08-07T11:07:22;5.95;;;1.92;;
32633;SDS011;19043;51.012;5.648;2023-08-07T11:12:12;4.70;;;2.30;;
32633;SDS011;19043;51.012;5.648;2023-08-07T11:14:37;5.33;;;2.13;;
32633;SDS011;19043;51.012;5.648;2023-08-07T11:17:03;3.83;;;1.83;;
32633;SDS011;19043;51.012;5.648;2023-08-07T11:19:28;3.53;;;1.83;;
32633;SDS011;19043;51.012;5.648;2023-08-07T11:21:53;5.13;;;2.27;;
32633;SDS011;19043;51.012;5.648;2023-08-07T11:24:19;4.20;;;1.92;;
32633;SDS011;19043;51.012;5.648;2023-08-07T11:26:46;3.88;;;1.85;;
32633;SDS011;19043;51.012;5.648;2023-08-07T11:29:15;5.40;;;2.05;;
32633;SDS011;19043;51.012;5.648;2023-08-07T11:31:40;3.22;;;1.40;;
32633;SDS011;19043;51.012;5.648;2023-08-07T11:34:06;4.93;;;1.90;;
32633;SDS011;19043;51.012;5.648;2023-08-07T11:36:31;4.10;;;1.90;;
32633;SDS011;19043;51.012;5.648;2023-08-07T11:38:58;4.50;;;1.67;;
32633;SDS011;19043;51.012;5.648;2023-08-07T11:41:23;4.05;;;1.60;;
32633;SDS011;19043;51.012;5.648;2023-08-07T11:43:49;3.13;;;1.67;;
32633;SDS011;19043;51.012;5.648;2023-08-07T11:46:14;3.20;;;1.80;;
32633;SDS011;19043;51.012;5.648;2023-08-07T11:48:40;4.55;;;2.22;;
32633;SDS011;19043;51.012;5.648;2023-08-07T11:51:06;4.32;;;1.70;;
32633;SDS011;19043;51.012;5.648;2023-08-07T11:53:35;4.53;;;1.70;;
32633;SDS011;19043;51.012;5.648;2023-08-07T11:58:39;4.00;;;1.38;;
32633;SDS011;19043;51.012;5.648;2023-08-07T12:01:12;4.57;;;1.33;;
32633;SDS011;19043;51.012;5.648;2023-08-07T12:03:41;4.13;;;1.67;;
32633;SDS011;19043;51.012;5.648;2023-08-07T12:06:07;3.72;;;1.30;;
32633;SDS011;19043;51.012;5.648;2023-08-07T12:10:58;2.42;;;1.38;;
32633;SDS011;19043;51.012;5.648;2023-08-07T12:13:23;3.23;;;1.20;;
32633;SDS011;19043;51.012;5.648;2023-08-07T12:15:51;2.30;;;1.13;;
32633;SDS011;19043;51.012;5.648;2023-08-07T12:18:17;3.13;;;1.25;;
32633;SDS011;19043;51.012;5.648;2023-08-07T12:20:43;4.00;;;1.45;;
32633;SDS011;19043;51.012;5.648;2023-08-07T12:23:11;3.08;;;1.35;;
32633;SDS011;19043;51.012;5.648;2023-08-07T12:25:36;2.70;;;1.30;;
32633;SDS011;19043;51.012;5.648;2023-08-07T12:28:01;4.27;;;1.30;;
32633;SDS011;19043;51.012;5.648;2023-08-07T12:30:26;3.80;;;1.35;;
32633;SDS011;19043;51.012;5.648;2023-08-07T12:32:52;6.18;;;2.00;;
32633;SDS011;19043;51.012;5.648;2023-08-07T12:35:18;3.15;;;1.55;;
32633;SDS011;19043;51.012;5.648;2023-08-07T12:37:43;6.37;;;1.80;;
32633;SDS011;19043;51.012;5.648;2023-08-07T12:40:09;2.67;;;1.42;;
32633;SDS011;19043;51.012;5.648;2023-08-07T12:42:35;3.08;;;1.50;;
32633;SDS011;19043;51.012;5.648;2023-08-07T12:45:00;4.22;;;1.73;;
32633;SDS011;19043;51.012;5.648;2023-08-07T12:47:26;2.87;;;1.20;;
32633;SDS011;19043;51.012;5.648;2023-08-07T12:49:51;3.10;;;1.10;;
32633;SDS011;19043;51.012;5.648;2023-08-07T12:52:16;2.60;;;1.00;;
32633;SDS011;19043;51.012;5.648;2023-08-07T12:54:42;2.05;;;1.02;;
32633;SDS011;19043;51.012;5.648;2023-08-07T12:57:07;2.67;;;1.10;;
32633;SDS011;19043;51.012;5.648;2023-08-07T12:59:32;2.03;;;0.97;;
32633;SDS011;19043;51.012;5.648;2023-08-07T13:01:57;2.47;;;1.10;;
32633;SDS011;19043;51.012;5.648;2023-08-07T13:04:22;2.28;;;1.10;;
32633;SDS011;19043;51.012;5.648;2023-08-07T13:06:48;6.65;;;1.23;;
32633;SDS011;19043;51.012;5.648;2023-08-07T13:09:14;2.47;;;1.02;;
32633;SDS011;19043;51.012;5.648;2023-08-07T13:11:39;2.78;;;1.05;;
32633;SDS011;19043;51.012;5.648;2023-08-07T13:14:05;2.00;;;1.10;;
32633;SDS011;19043;51.012;5.648;2023-08-07T13:16:31;1.88;;;0.85;;
32633;SDS011;19043;51.012;5.648;2023-08-07T13:18:56;2.13;;;1.10;;
32633;SDS011;19043;51.012;5.648;2023-08-07T13:21:21;3.30;;;1.27;;
32633;SDS011;19043;51.012;5.648;2023-08-07T13:23:46;2.83;;;1.20;;
32633;SDS011;19043;51.012;5.648;2023-08-07T13:26:12;2.07;;;1.07;;
32633;SDS011;19043;51.012;5.648;2023-08-07T13:28:37;3.10;;;1.13;;
32633;SDS011;19043;51.012;5.648;2023-08-07T13:31:02;2.30;;;1.00;;
32633;SDS011;19043;51.012;5.648;2023-08-07T13:33:27;3.70;;;1.17;;
32633;SDS011;19043;51.012;5.648;2023-08-07T13:35:53;2.58;;;0.82;;
32633;SDS011;19043;51.012;5.648;2023-08-07T13:38:18;1.58;;;0.80;;
32633;SDS011;19043;51.012;5.648;2023-08-07T13:40:43;2.58;;;0.88;;
32633;SDS011;19043;51.012;5.648;2023-08-07T13:43:10;2.80;;;1.10;;
32633;SDS011;19043;51.012;5.648;2023-08-07T13:45:36;2.50;;;1.10;;
32633;SDS011;19043;51.012;5.648;2023-08-07T13:48:01;1.98;;;1.00;;
32633;SDS011;19043;51.012;5.648;2023-08-07T13:50:27;2.22;;;0.90;;
32633;SDS011;19043;51.012;5.648;2023-08-07T13:52:52;2.88;;;1.20;;
32633;SDS011;19043;51.012;5.648;2023-08-07T13:55:17;2.40;;;1.07;;
32633;SDS011;19043;51.012;5.648;2023-08-07T13:57:43;2.53;;;1.23;;
32633;SDS011;19043;51.012;5.648;2023-08-07T14:00:08;3.88;;;1.00;;
32633;SDS011;19043;51.012;5.648;2023-08-07T14:02:33;2.13;;;0.90;;
32633;SDS011;19043;51.012;5.648;2023-08-07T14:05:00;5.38;;;1.15;;
32633;SDS011;19043;51.012;5.648;2023-08-07T14:07:25;6.63;;;1.00;;
32633;SDS011;19043;51.012;5.648;2023-08-07T14:09:50;4.60;;;1.10;;
32633;SDS011;19043;51.012;5.648;2023-08-07T14:12:16;1.70;;;0.90;;
32633;SDS011;19043;51.012;5.648;2023-08-07T14:14:41;1.98;;;1.00;;
32633;SDS011;19043;51.012;5.648;2023-08-07T14:17:06;1.90;;;0.90;;
32633;SDS011;19043;51.012;5.648;2023-08-07T14:19:31;2.22;;;1.00;;
32633;SDS011;19043;51.012;5.648;2023-08-07T14:21:57;3.00;;;1.07;;
32633;SDS011;19043;51.012;5.648;2023-08-07T14:24:22;2.30;;;1.08;;
32633;SDS011;19043;51.012;5.648;2023-08-07T14:26:47;2.25;;;1.00;;
32633;SDS011;19043;51.012;5.648;2023-08-07T14:29:13;1.73;;;0.90;;
32633;SDS011;19043;51.012;5.648;2023-08-07T14:31:38;1.50;;;0.73;;
32633;SDS011;19043;51.012;5.648;2023-08-07T14:34:04;3.58;;;1.50;;
32633;SDS011;19043;51.012;5.648;2023-08-07T14:36:30;3.47;;;1.10;;
32633;SDS011;19043;51.012;5.648;2023-08-07T14:38:55;2.33;;;0.88;;
32633;SDS011;19043;51.012;5.648;2023-08-07T14:41:20;2.13;;;1.20;;
32633;SDS011;19043;51.012;5.648;2023-08-07T14:43:45;3.20;;;0.95;;
32633;SDS011;19043;51.012;5.648;2023-08-07T14:46:12;2.17;;;1.02;;
32633;SDS011;19043;51.012;5.648;2023-08-07T14:48:37;2.72;;;1.20;;
32633;SDS011;19043;51.012;5.648;2023-08-07T14:51:02;2.13;;;1.00;;
32633;SDS011;19043;51.012;5.648;2023-08-07T14:53:28;3.97;;;1.10;;